createdAt,value
2017-05-08T00:00:04.406Z,99.99
2017-05-08T00:10:04.368Z,99.99
2017-05-08T00:20:04.442Z,99.99
2017-05-08T00:30:04.395Z,99.99
2017-05-08T00:40:04.401Z,99.99
2017-05-08T00:50:04.438Z,99.99
2017-05-08T01:00:04.411Z,99.99
2017-05-08T01:10:04.554Z,99.99
2017-05-08T01:20:04.543Z,99.99
2017-05-08T01:30:04.478Z,99.99
2017-05-08T01:40:04.436Z,99.99
2017-05-08T01:50:04.457Z,99.99
2017-05-08T02:00:04.468Z,99.99
2017-05-08T02:10:04.518Z,99.99
2017-05-08T02:20:04.477Z,99.99
2017-05-08T02:30:04.486Z,99.99
2017-05-08T02:40:04.493Z,99.99
2017-05-08T02:50:04.558Z,99.99
2017-05-08T03:00:04.519Z,99.99
2017-05-08T03:10:04.611Z,99.99
2017-05-08T03:20:04.537Z,99.99
2017-05-08T03:30:04.603Z,99.99
2017-05-08T03:40:04.537Z,99.99
2017-05-08T03:50:04.546Z,99.99
2017-05-08T04:00:04.591Z,99.99
2017-05-08T04:10:04.582Z,99.99
2017-05-08T04:20:04.608Z,99.99
2017-05-08T04:30:04.586Z,99.99
2017-05-08T04:40:04.583Z,99.99
2017-05-08T04:50:04.700Z,99.99
2017-05-08T05:00:04.607Z,99.99
2017-05-08T05:10:04.616Z,99.99
2017-05-08T05:20:04.678Z,99.99
2017-05-08T05:30:04.648Z,99.99
2017-05-08T05:40:04.723Z,99.99
2017-05-08T05:50:04.643Z,99.99
2017-05-08T06:00:04.661Z,99.99
2017-05-08T06:10:04.679Z,99.99
2017-05-08T06:20:04.671Z,99.99
2017-05-08T06:30:04.675Z,99.99
2017-05-08T06:40:04.796Z,99.99
2017-05-08T06:50:04.699Z,99.99
2017-05-08T07:00:04.739Z,99.99
2017-05-08T07:10:04.724Z,99.99
2017-05-08T07:20:04.725Z,99.99
2017-05-08T07:30:04.813Z,99.99
2017-05-08T07:40:04.753Z,99.99
2017-05-08T07:50:04.757Z,99.99
2017-05-08T08:00:04.827Z,99.99
2017-05-08T08:10:04.761Z,99.99
2017-05-08T08:20:04.804Z,99.99
2017-05-08T08:30:04.868Z,99.99
2017-05-08T08:40:04.786Z,99.99
2017-05-08T08:50:04.917Z,99.99
2017-05-08T09:00:04.812Z,98.13
2017-05-08T09:10:04.922Z,97.17
2017-05-08T09:20:04.893Z,94.93
2017-05-08T09:30:04.944Z,98.32
2017-05-08T09:40:16.388Z,95.7
2017-05-08T09:50:09.577Z,95.98
2017-05-08T10:00:04.966Z,93.51
2017-05-08T10:10:05.005Z,95.17
2017-05-08T10:20:05.222Z,94.65
2017-05-08T10:30:04.892Z,93.26
2017-05-08T10:40:04.910Z,91.59
2017-05-08T10:50:04.926Z,85.18
2017-05-08T11:00:05.023Z,84.98
2017-05-08T11:10:04.970Z,84.65
2017-05-08T11:20:04.957Z,89.63
2017-05-08T11:30:06.006Z,92.16
2017-05-08T11:40:04.991Z,94.12
2017-05-08T11:50:06.138Z,96.42
2017-05-08T12:00:05.020Z,99.08
2017-05-08T12:10:04.989Z,98.8
2017-05-08T12:20:05.104Z,99.99
2017-05-08T12:30:05.039Z,99.99
2017-05-08T12:40:05.029Z,99.99
2017-05-08T12:50:05.039Z,99.99
2017-05-08T13:00:06.082Z,99.99
2017-05-08T13:10:05.127Z,99.99
2017-05-08T13:20:05.834Z,99.99
2017-05-08T13:30:05.097Z,99.99
2017-05-08T13:40:05.199Z,99.99
2017-05-08T13:50:05.100Z,99.99
2017-05-08T14:00:05.257Z,99.99
2017-05-08T14:10:05.225Z,99.99
2017-05-08T14:20:05.139Z,99.99
2017-05-08T14:30:05.290Z,99.99
2017-05-08T14:40:05.279Z,99.99
2017-05-08T14:50:05.164Z,93.12
2017-05-08T15:00:05.190Z,99.99
2017-05-08T15:10:05.199Z,90.87
2017-05-08T15:20:05.237Z,85.13
2017-05-08T15:30:05.199Z,79.54
2017-05-08T15:40:05.225Z,69.35
2017-05-08T15:50:05.231Z,68.74
2017-05-08T16:00:05.269Z,69.95
2017-05-08T16:10:05.363Z,66.54
2017-05-08T16:20:05.312Z,68.52
2017-05-08T16:30:05.367Z,68.77
2017-05-08T16:40:05.320Z,66.19
2017-05-08T16:50:05.384Z,66.8
2017-05-08T17:00:05.289Z,65.55
2017-05-08T17:10:05.318Z,63.42
2017-05-08T17:20:05.313Z,66.28
2017-05-08T17:30:05.333Z,68.2
2017-05-08T17:40:05.348Z,68.07
2017-05-08T17:50:05.346Z,67.94
2017-05-08T18:00:05.362Z,67.46
2017-05-08T18:10:05.357Z,68.67
2017-05-08T18:20:05.429Z,70.54
2017-05-08T18:30:05.374Z,72.93
2017-05-08T18:40:05.375Z,74.52
2017-05-08T18:50:05.403Z,75.15
2017-05-08T19:00:05.400Z,76.86
2017-05-08T19:10:05.408Z,79.11
2017-05-08T19:20:05.431Z,79.02
2017-05-08T19:30:05.428Z,78.59
2017-05-08T19:40:05.499Z,79.99
2017-05-08T19:50:05.443Z,80.27
2017-05-08T20:00:05.439Z,80.94
2017-05-08T20:10:05.454Z,80.61
2017-05-08T20:20:05.511Z,83.65
2017-05-08T20:30:05.541Z,82.04
2017-05-08T20:40:05.592Z,80.61
2017-05-08T20:50:05.600Z,77.56
2017-05-08T21:00:05.930Z,74.9
2017-05-08T21:10:05.870Z,71.67
2017-05-08T21:20:05.597Z,71.95
2017-05-08T21:30:05.668Z,73.63
2017-05-08T21:40:05.618Z,75.4
2017-05-08T21:50:05.551Z,77.39
2017-05-08T22:00:05.581Z,79.3
2017-05-08T22:10:05.581Z,80.87
2017-05-08T22:20:05.577Z,83.15
2017-05-08T22:30:05.636Z,85.68
2017-05-08T22:40:05.625Z,88.71
2017-05-08T22:50:05.726Z,90.99
2017-05-08T23:00:05.623Z,93.99
2017-05-08T23:10:05.604Z,97.12
2017-05-08T23:20:05.603Z,98.07
2017-05-08T23:30:05.643Z,99.77
2017-05-08T23:40:05.618Z,99.99
2017-05-08T23:50:05.734Z,99.99
